createdAt,value
2022-09-01T00:00:39.069Z,18.29
2022-09-01T00:01:42.367Z,18.29
2022-09-01T00:02:44.745Z,18.19
2022-09-01T00:03:49.767Z,18.22
2022-09-01T00:04:56.040Z,18.13
2022-09-01T00:05:57.745Z,18.16
2022-09-01T00:07:00.084Z,18.13
2022-09-01T00:08:01.772Z,18.10
2022-09-01T00:09:05.231Z,18.10
2022-09-01T00:10:07.671Z,18.08
2022-09-01T00:11:09.340Z,18.03
2022-09-01T00:12:11.106Z,18.03
2022-09-01T00:13:12.701Z,18.02
2022-09-01T00:14:29.990Z,18.03
2022-09-01T00:15:34.313Z,17.86
2022-09-01T00:16:35.957Z,17.85
2022-09-01T00:17:37.747Z,17.86
2022-09-01T00:18:42.180Z,17.82
2022-09-01T00:19:44.650Z,17.75
2022-09-01T00:20:46.532Z,17.77
2022-09-01T00:21:48.189Z,17.77
2022-09-01T00:22:49.908Z,17.70
2022-09-01T00:23:51.679Z,17.74
2022-09-01T00:24:53.360Z,17.71
2022-09-01T00:25:55.050Z,17.70
2022-09-01T00:26:56.910Z,17.70
2022-09-01T00:28:04.823Z,17.57
2022-09-01T00:29:06.560Z,17.57
2022-09-01T00:30:08.918Z,17.62
2022-09-01T00:31:14.994Z,17.61
2022-09-01T00:32:16.754Z,17.65
2022-09-01T00:33:18.424Z,17.71
2022-09-01T00:34:20.327Z,17.67
2022-09-01T00:35:22.105Z,17.68
2022-09-01T00:36:23.799Z,17.72
2022-09-01T00:37:25.389Z,17.61
2022-09-01T00:38:27.130Z,17.68
2022-09-01T00:39:28.754Z,17.61
2022-09-01T00:40:32.063Z,17.67
2022-09-01T00:41:35.071Z,17.65
2022-09-01T00:42:36.700Z,17.68
2022-09-01T00:43:50.364Z,17.68
2022-09-01T00:44:51.965Z,17.65
2022-09-01T00:45:53.726Z,17.62
2022-09-01T00:46:56.752Z,17.64
2022-09-01T00:47:58.467Z,17.64
2022-09-01T00:49:04.362Z,17.64
2022-09-01T00:50:07.948Z,17.65
2022-09-01T00:51:10.139Z,17.67
2022-09-01T00:52:15.155Z,17.62
2022-09-01T00:53:16.793Z,17.67
2022-09-01T00:54:23.608Z,17.62
2022-09-01T00:55:27.129Z,17.62
2022-09-01T00:56:30.118Z,17.58
2022-09-01T00:57:31.759Z,17.55
2022-09-01T00:58:34.328Z,17.48
2022-09-01T00:59:36.507Z,17.51
2022-09-01T01:00:41.742Z,17.51
2022-09-01T01:01:43.650Z,17.55
2022-09-01T01:02:47.714Z,17.52
2022-09-01T01:03:49.567Z,17.45
2022-09-01T01:04:52.927Z,17.50
2022-09-01T01:05:58.131Z,17.48
2022-09-01T01:07:01.822Z,17.38
2022-09-01T01:08:04.257Z,17.33
2022-09-01T01:09:05.847Z,17.26
2022-09-01T01:10:08.034Z,17.21
2022-09-01T01:11:18.958Z,17.13
2022-09-01T01:12:20.699Z,17.13
2022-09-01T01:13:24.281Z,17.09
2022-09-01T01:14:27.862Z,17.14
2022-09-01T01:15:29.764Z,17.20
2022-09-01T01:16:31.463Z,17.20
2022-09-01T01:17:33.111Z,17.10
2022-09-01T01:18:34.785Z,17.09
2022-09-01T01:19:59.290Z,17.09
2022-09-01T01:21:25.793Z,17.02
2022-09-01T01:23:09.252Z,16.91
2022-09-01T01:24:31.671Z,16.87
2022-09-01T01:25:40.066Z,16.86
2022-09-01T01:26:42.532Z,16.83
2022-09-01T01:27:44.184Z,16.80
2022-09-01T01:28:45.790Z,16.80
2022-09-01T01:29:47.783Z,16.80
2022-09-01T01:30:52.484Z,16.77
2022-09-01T01:31:54.396Z,16.84
2022-09-01T01:32:57.920Z,16.80
2022-09-01T01:34:00.837Z,16.79
2022-09-01T01:35:05.969Z,16.76
2022-09-01T01:36:33.978Z,16.79
2022-09-01T01:37:35.793Z,16.77
2022-09-01T01:38:37.418Z,16.76
2022-09-01T01:39:40.928Z,16.79
2022-09-01T01:40:42.588Z,16.77
2022-09-01T01:41:48.882Z,16.80
2022-09-01T01:42:52.108Z,16.83
2022-09-01T01:43:53.839Z,16.84
2022-09-01T01:44:55.793Z,16.89
2022-09-01T01:46:02.634Z,16.91
2022-09-01T01:47:08.578Z,16.94
2022-09-01T01:48:10.800Z,16.91
2022-09-01T01:49:20.061Z,16.84
2022-09-01T01:50:28.587Z,16.75
2022-09-01T01:51:32.984Z,16.79
2022-09-01T01:52:34.945Z,16.75
2022-09-01T01:53:39.493Z,16.72
2022-09-01T01:54:41.703Z,16.76
2022-09-01T01:55:43.875Z,16.72
2022-09-01T01:56:45.546Z,16.68
2022-09-01T01:57:50.612Z,16.66
2022-09-01T01:58:56.470Z,16.66
2022-09-01T01:59:58.177Z,16.72
2022-09-01T02:01:00.741Z,16.72
2022-09-01T02:02:04.033Z,16.76
2022-09-01T02:03:07.616Z,16.75
2022-09-01T02:04:11.147Z,16.70
2022-09-01T02:05:13.105Z,16.65
2022-09-01T02:06:14.710Z,16.59
2022-09-01T02:07:16.849Z,16.62
2022-09-01T02:08:21.013Z,16.56
2022-09-01T02:09:23.426Z,16.59
2022-09-01T02:10:31.030Z,16.65
2022-09-01T02:11:37.991Z,16.62
2022-09-01T02:12:43.088Z,16.55
2022-09-01T02:13:46.959Z,16.52
2022-09-01T02:14:50.215Z,16.55
2022-09-01T02:15:53.960Z,16.49
2022-09-01T02:16:56.247Z,16.45
2022-09-01T02:18:00.396Z,16.49
2022-09-01T02:19:08.982Z,16.47
2022-09-01T02:20:10.745Z,16.42
2022-09-01T02:21:18.399Z,16.44
2022-09-01T02:22:21.755Z,16.42
2022-09-01T02:23:24.583Z,16.44
2022-09-01T02:24:26.484Z,16.48
2022-09-01T02:25:28.270Z,16.49
2022-09-01T02:26:43.044Z,16.48
2022-09-01T02:27:46.946Z,16.48
2022-09-01T02:28:55.759Z,16.44
2022-09-01T02:29:58.818Z,16.49
2022-09-01T02:31:02.472Z,16.56
2022-09-01T02:32:04.182Z,16.56
2022-09-01T02:33:05.803Z,16.52
2022-09-01T02:34:14.065Z,16.62
2022-09-01T02:35:16.760Z,16.62
2022-09-01T02:36:19.693Z,16.70
2022-09-01T02:37:25.590Z,16.69
2022-09-01T02:38:29.259Z,16.72
2022-09-01T02:39:33.573Z,16.75
2022-09-01T02:40:35.421Z,16.77
2022-09-01T02:41:37.062Z,16.80
2022-09-01T02:42:41.708Z,16.82
2022-09-01T02:43:46.347Z,16.83
2022-09-01T02:44:47.966Z,16.87
2022-09-01T02:45:54.443Z,16.86
2022-09-01T02:46:56.431Z,16.87
2022-09-01T02:47:59.060Z,16.89
2022-09-01T02:49:00.934Z,16.94
2022-09-01T02:50:03.665Z,16.94
2022-09-01T02:51:06.991Z,16.94
2022-09-01T02:52:08.623Z,16.94
2022-09-01T02:53:11.968Z,16.91
2022-09-01T02:54:17.642Z,16.94
2022-09-01T02:55:22.181Z,16.97
2022-09-01T02:56:25.424Z,16.97
2022-09-01T02:57:29.531Z,16.96
2022-09-01T02:58:33.109Z,16.96
2022-09-01T02:59:38.665Z,16.93
2022-09-01T03:00:43.562Z,17.00
2022-09-01T03:01:47.604Z,16.94
2022-09-01T03:02:51.534Z,16.93
2022-09-01T03:04:05.858Z,16.96
2022-09-01T03:05:08.464Z,16.94
2022-09-01T03:06:10.236Z,16.93
2022-09-01T03:07:13.869Z,16.89
2022-09-01T03:08:16.519Z,16.89
2022-09-01T03:09:18.381Z,16.91
2022-09-01T03:10:21.530Z,16.93
2022-09-01T03:11:26.483Z,16.97
2022-09-01T03:12:28.398Z,16.94
2022-09-01T03:13:31.091Z,16.93
2022-09-01T03:14:32.905Z,16.93
2022-09-01T03:15:36.594Z,16.87
2022-09-01T03:16:39.458Z,16.82
2022-09-01T03:17:41.899Z,16.76
2022-09-01T03:18:43.510Z,16.70
2022-09-01T03:19:46.816Z,16.72
2022-09-01T03:20:51.057Z,16.65
2022-09-01T03:21:52.719Z,16.63
2022-09-01T03:22:57.190Z,16.52
2022-09-01T03:24:02.034Z,16.45
2022-09-01T03:25:04.693Z,16.44
2022-09-01T03:26:06.319Z,16.52
2022-09-01T03:27:09.065Z,16.52
2022-09-01T03:28:13.193Z,16.51
2022-09-01T03:29:15.486Z,16.45
2022-09-01T03:30:17.128Z,16.45
2022-09-01T03:31:20.153Z,16.38
2022-09-01T03:32:21.959Z,16.38
2022-09-01T03:33:25.185Z,16.25
2022-09-01T03:34:27.203Z,16.24
2022-09-01T03:35:29.579Z,16.28
2022-09-01T03:36:33.396Z,16.29
2022-09-01T03:37:36.352Z,16.22
2022-09-01T03:38:38.185Z,16.12
2022-09-01T03:39:39.860Z,16.17
2022-09-01T03:40:41.576Z,16.19
2022-09-01T03:41:43.629Z,16.22
2022-09-01T03:42:45.678Z,16.28
2022-09-01T03:43:48.399Z,16.21
2022-09-01T03:44:52.014Z,16.19
2022-09-01T03:45:55.409Z,16.21
2022-09-01T03:46:58.502Z,16.25
2022-09-01T03:48:00.581Z,16.22
2022-09-01T03:49:03.647Z,16.22
2022-09-01T03:50:05.995Z,16.19
2022-09-01T03:51:07.719Z,16.21
2022-09-01T03:52:12.185Z,16.19
2022-09-01T03:53:20.117Z,16.15
2022-09-01T03:54:28.452Z,16.19
2022-09-01T03:55:32.486Z,16.11
2022-09-01T03:56:34.296Z,16.12
2022-09-01T03:57:42.878Z,16.17
2022-09-01T03:58:47.323Z,16.08
2022-09-01T03:59:49.391Z,16.04
2022-09-01T04:00:55.470Z,16.04
2022-09-01T04:01:58.009Z,16.05
2022-09-01T04:03:00.550Z,16.09
2022-09-01T04:04:03.248Z,16.05
2022-09-01T04:05:08.336Z,16.01
2022-09-01T04:06:10.775Z,16.05
2022-09-01T04:07:19.217Z,16.07
2022-09-01T04:08:21.839Z,16.04
2022-09-01T04:09:23.440Z,16.00
2022-09-01T04:10:25.054Z,15.95
2022-09-01T04:11:26.768Z,15.93
2022-09-01T04:12:29.990Z,15.91
2022-09-01T04:13:35.566Z,15.97
2022-09-01T04:14:37.179Z,15.91
2022-09-01T04:15:38.919Z,15.88
2022-09-01T04:17:00.204Z,15.88
2022-09-01T04:18:10.960Z,15.94
2022-09-01T04:19:20.672Z,15.91
2022-09-01T04:20:23.577Z,15.93
2022-09-01T04:21:25.199Z,15.88
2022-09-01T04:22:30.263Z,15.93
2022-09-01T04:23:33.981Z,15.91
2022-09-01T04:24:35.650Z,15.94
2022-09-01T04:25:39.127Z,15.94
2022-09-01T04:26:41.308Z,16.00
2022-09-01T04:27:43.181Z,16.00
2022-09-01T04:28:49.546Z,16.00
2022-09-01T04:29:57.014Z,16.01
2022-09-01T04:30:59.308Z,16.02
2022-09-01T04:32:03.738Z,16.02
2022-09-01T04:33:05.733Z,16.07
2022-09-01T04:34:16.441Z,16.18
2022-09-01T04:35:19.027Z,16.14
2022-09-01T04:36:23.722Z,16.11
2022-09-01T04:37:25.317Z,16.04
2022-09-01T04:38:29.319Z,16.08
2022-09-01T04:39:31.009Z,16.05
2022-09-01T04:40:32.708Z,16.09
2022-09-01T04:41:35.322Z,16.09
2022-09-01T04:42:36.938Z,16.04
2022-09-01T04:43:38.545Z,16.01
2022-09-01T04:44:40.297Z,16.05
2022-09-01T04:45:43.268Z,16.09
2022-09-01T04:46:48.001Z,16.11
2022-09-01T04:47:49.670Z,16.12
2022-09-01T04:48:52.540Z,16.14
2022-09-01T04:49:58.230Z,16.12
2022-09-01T04:50:59.835Z,16.19
2022-09-01T04:52:01.704Z,16.18
2022-09-01T04:53:04.690Z,16.15
2022-09-01T04:54:09.341Z,16.15
2022-09-01T04:55:17.698Z,16.14
2022-09-01T04:56:23.104Z,16.17
2022-09-01T04:57:29.378Z,16.18
2022-09-01T04:58:31.009Z,16.21
2022-09-01T04:59:33.110Z,16.21
2022-09-01T05:00:34.812Z,16.18
2022-09-01T05:01:45.785Z,16.08
2022-09-01T05:02:47.437Z,16.01
2022-09-01T05:04:01.522Z,16.08
2022-09-01T05:05:10.306Z,16.07
2022-09-01T05:06:19.651Z,16.05
2022-09-01T05:07:21.620Z,16.07
2022-09-01T05:08:24.561Z,16.14
2022-09-01T05:09:27.651Z,16.15
2022-09-01T05:10:30.140Z,16.09
2022-09-01T05:11:33.524Z,16.08
2022-09-01T05:12:35.901Z,16.09
2022-09-01T05:13:39.833Z,16.09
2022-09-01T05:14:42.518Z,16.07
2022-09-01T05:15:46.726Z,16.01
2022-09-01T05:16:48.664Z,16.02
2022-09-01T05:17:52.727Z,16.08
2022-09-01T05:18:57.144Z,16.05
2022-09-01T05:19:58.908Z,16.02
2022-09-01T05:21:09.890Z,16.02
2022-09-01T05:22:11.667Z,16.00
2022-09-01T05:23:13.308Z,15.90
2022-09-01T05:24:19.171Z,15.84
2022-09-01T05:25:21.028Z,15.84
2022-09-01T05:26:30.142Z,15.77
2022-09-01T05:27:31.765Z,15.71
2022-09-01T05:28:33.375Z,15.73
2022-09-01T05:29:38.326Z,15.61
2022-09-01T05:30:40.643Z,15.66
2022-09-01T05:31:42.688Z,15.67
2022-09-01T05:32:49.311Z,15.70
2022-09-01T05:33:51.165Z,15.76
2022-09-01T05:34:53.037Z,15.76
2022-09-01T05:36:01.317Z,15.78
2022-09-01T05:37:03.290Z,15.86
2022-09-01T05:38:05.007Z,15.86
2022-09-01T05:39:07.134Z,15.77
2022-09-01T05:40:16.433Z,15.81
2022-09-01T05:41:24.018Z,15.83
2022-09-01T05:42:27.615Z,15.86
2022-09-01T05:43:30.951Z,15.87
2022-09-01T05:44:32.752Z,15.86
2022-09-01T05:45:56.312Z,15.84
2022-09-01T05:46:59.778Z,15.90
2022-09-01T05:48:02.631Z,15.80
2022-09-01T05:49:04.336Z,15.81
2022-09-01T05:50:14.061Z,15.83
2022-09-01T05:51:42.741Z,15.76
2022-09-01T05:52:44.618Z,15.77
2022-09-01T05:53:47.219Z,15.76
2022-09-01T05:54:49.856Z,15.81
2022-09-01T05:55:54.385Z,15.83
2022-09-01T05:57:08.389Z,15.77
2022-09-01T05:58:16.631Z,15.83
2022-09-01T05:59:24.440Z,15.87
2022-09-01T06:00:34.809Z,15.84
2022-09-01T06:01:42.564Z,15.83
2022-09-01T06:02:47.178Z,15.80
2022-09-01T06:03:54.898Z,15.81
2022-09-01T06:04:57.480Z,15.77
2022-09-01T06:06:08.831Z,15.84
2022-09-01T06:07:16.336Z,15.87
2022-09-01T06:08:19.715Z,15.84
2022-09-01T06:09:23.586Z,15.76
2022-09-01T06:10:25.189Z,15.83
2022-09-01T06:11:27.163Z,15.83
2022-09-01T06:12:29.112Z,15.86
2022-09-01T06:13:30.776Z,15.84
2022-09-01T06:14:32.791Z,15.93
2022-09-01T06:15:36.182Z,15.93
2022-09-01T06:16:38.520Z,15.97
2022-09-01T06:17:40.149Z,15.93
2022-09-01T06:18:43.390Z,15.90
2022-09-01T06:19:45.142Z,15.90
2022-09-01T06:20:47.470Z,15.83
2022-09-01T06:21:49.094Z,15.88
2022-09-01T06:22:53.188Z,15.93
2022-09-01T06:23:55.859Z,16.00
2022-09-01T06:25:02.253Z,15.98
2022-09-01T06:26:05.633Z,16.02
2022-09-01T06:27:10.274Z,15.98
2022-09-01T06:28:13.133Z,15.90
2022-09-01T06:29:15.672Z,15.93
2022-09-01T06:30:24.370Z,15.93
2022-09-01T06:31:26.754Z,15.90
2022-09-01T06:32:28.902Z,15.94
2022-09-01T06:33:31.118Z,16.01
2022-09-01T06:34:33.838Z,16.05
2022-09-01T06:35:37.193Z,16.04
2022-09-01T06:36:40.795Z,16.09
2022-09-01T06:37:46.065Z,16.14
2022-09-01T06:38:48.666Z,16.11
2022-09-01T06:39:50.957Z,16.19
2022-09-01T06:41:00.559Z,16.22
2022-09-01T06:42:05.981Z,16.21
2022-09-01T06:43:08.353Z,16.21
2022-09-01T06:44:14.479Z,16.19
2022-09-01T06:45:17.681Z,16.22
2022-09-01T06:46:20.293Z,16.21
2022-09-01T06:47:22.002Z,16.22
2022-09-01T06:48:23.693Z,16.30
2022-09-01T06:49:32.623Z,16.33
2022-09-01T06:51:56.212Z,16.26
2022-09-01T06:54:36.532Z,16.41
2022-09-01T06:55:38.425Z,16.41
2022-09-01T06:56:44.725Z,16.30
2022-09-01T06:58:06.055Z,16.39
2022-09-01T06:59:08.303Z,16.32
2022-09-01T07:00:19.170Z,16.30
2022-09-01T07:01:21.401Z,16.32
2022-09-01T07:03:47.655Z,16.33
2022-09-01T07:04:50.056Z,16.36
2022-09-01T07:06:09.548Z,16.30
2022-09-01T07:09:19.079Z,16.32
2022-09-01T07:14:16.949Z,16.44
2022-09-01T07:16:52.534Z,16.36
2022-09-01T07:17:56.567Z,16.44
2022-09-01T07:19:00.166Z,16.47
2022-09-01T07:21:42.000Z,16.51
2022-09-01T07:24:09.063Z,16.48
2022-09-01T07:25:34.972Z,16.45
2022-09-01T07:26:51.031Z,16.51
2022-09-01T07:27:52.669Z,16.52
2022-09-01T07:29:06.151Z,16.45
2022-09-01T07:30:12.433Z,16.35
2022-09-01T07:32:47.301Z,16.32
2022-09-01T07:33:54.323Z,16.26
2022-09-01T07:34:56.236Z,16.28
2022-09-01T07:38:49.793Z,16.45
2022-09-01T07:42:57.898Z,16.32
2022-09-01T07:44:05.394Z,16.48
2022-09-01T07:45:27.620Z,16.58
2022-09-01T07:46:40.083Z,16.68
2022-09-01T07:47:58.364Z,16.68
2022-09-01T07:49:03.311Z,16.63
2022-09-01T07:50:38.673Z,16.65
2022-09-01T07:51:41.322Z,16.70
2022-09-01T07:52:43.389Z,16.77
2022-09-01T07:53:45.287Z,16.79
2022-09-01T07:54:46.879Z,16.86
2022-09-01T07:55:51.262Z,16.82
2022-09-01T07:56:54.860Z,16.84
2022-09-01T07:57:57.817Z,16.93
2022-09-01T07:58:59.634Z,16.94
2022-09-01T08:00:01.255Z,16.87
2022-09-01T08:01:07.139Z,16.80
2022-09-01T08:02:08.817Z,16.86
2022-09-01T08:03:10.551Z,16.93
2022-09-01T08:04:12.306Z,16.96
2022-09-01T08:05:17.915Z,16.99
2022-09-01T08:06:21.092Z,17.00
2022-09-01T08:07:23.275Z,16.94
2022-09-01T08:08:28.953Z,16.99
2022-09-01T08:09:37.480Z,16.93
2022-09-01T08:10:40.950Z,16.87
2022-09-01T08:13:04.637Z,17.00
2022-09-01T08:14:06.975Z,17.04
2022-09-01T08:16:39.317Z,17.19
2022-09-01T08:17:57.016Z,17.21
2022-09-01T08:18:59.007Z,17.20
2022-09-01T08:20:01.255Z,17.19
2022-09-01T08:21:07.877Z,17.23
2022-09-01T08:22:09.515Z,17.26
2022-09-01T08:23:12.103Z,17.31
2022-09-01T08:24:14.415Z,17.28
2022-09-01T08:25:16.466Z,17.24
2022-09-01T08:26:18.985Z,17.20
2022-09-01T08:27:20.657Z,17.19
2022-09-01T08:28:29.643Z,17.24
2022-09-01T08:29:31.387Z,17.24
2022-09-01T08:30:35.256Z,17.26
2022-09-01T08:31:36.975Z,17.07
2022-09-01T08:32:42.318Z,17.04
2022-09-01T08:33:44.651Z,17.04
2022-09-01T08:34:46.291Z,17.07
2022-09-01T08:35:48.725Z,17.10
2022-09-01T08:36:50.390Z,17.11
2022-09-01T08:37:52.114Z,17.19
2022-09-01T08:38:53.871Z,17.13
2022-09-01T08:39:55.770Z,17.17
2022-09-01T08:40:58.160Z,17.19
2022-09-01T08:42:38.861Z,17.26
2022-09-01T08:43:58.809Z,17.26
2022-09-01T08:45:04.233Z,17.31
2022-09-01T08:46:35.068Z,17.40
2022-09-01T08:47:55.960Z,17.47
2022-09-01T08:50:22.011Z,17.48
2022-09-01T08:51:40.654Z,17.57
2022-09-01T08:52:43.958Z,17.54
2022-09-01T08:53:55.437Z,17.57
2022-09-01T08:55:02.615Z,17.57
2022-09-01T08:56:05.196Z,17.61
2022-09-01T08:57:21.315Z,17.65
2022-09-01T08:58:23.160Z,17.75
2022-09-01T08:59:24.979Z,17.75
2022-09-01T09:00:29.312Z,17.71
2022-09-01T09:01:42.694Z,17.71
2022-09-01T09:03:02.463Z,17.67
2022-09-01T09:04:20.685Z,17.70
2022-09-01T09:05:22.262Z,17.62
2022-09-01T09:06:26.565Z,17.74
2022-09-01T09:07:49.832Z,17.84
2022-09-01T09:08:55.387Z,17.92
2022-09-01T09:10:16.944Z,18.01
2022-09-01T09:11:40.925Z,18.08
2022-09-01T09:13:04.976Z,18.08
2022-09-01T09:14:27.786Z,18.12
2022-09-01T09:15:37.367Z,18.12
2022-09-01T09:16:43.462Z,18.08
2022-09-01T09:17:58.995Z,18.03
2022-09-01T09:19:04.536Z,17.99
2022-09-01T09:20:06.671Z,17.98
2022-09-01T09:21:34.706Z,17.98
2022-09-01T09:22:36.507Z,18.08
2022-09-01T09:23:41.054Z,18.01
2022-09-01T09:24:52.527Z,18.09
2022-09-01T09:25:54.462Z,18.13
2022-09-01T09:26:58.909Z,18.22
2022-09-01T09:28:00.999Z,18.19
2022-09-01T09:29:02.885Z,18.16
2022-09-01T09:30:09.379Z,18.17
2022-09-01T09:31:29.959Z,18.10
2022-09-01T09:33:15.983Z,18.15
2022-09-01T09:34:16.344Z,18.17
2022-09-01T09:35:26.994Z,18.15
2022-09-01T09:36:34.822Z,18.19
2022-09-01T09:37:37.644Z,18.22
2022-09-01T09:38:40.154Z,18.16
2022-09-01T09:39:41.749Z,18.17
2022-09-01T09:41:16.004Z,18.21
2022-09-01T09:42:17.290Z,18.15
2022-09-01T09:43:19.377Z,18.15
2022-09-01T09:44:30.012Z,18.17
2022-09-01T09:45:35.224Z,18.16
2022-09-01T09:46:38.931Z,18.22
2022-09-01T09:47:44.847Z,18.19
2022-09-01T09:48:46.786Z,18.26
2022-09-01T09:49:49.011Z,18.33
2022-09-01T09:50:50.740Z,18.36
2022-09-01T09:51:54.457Z,18.46
2022-09-01T09:53:24.120Z,18.56
2022-09-01T09:54:26.543Z,18.54
2022-09-01T09:55:31.005Z,18.68
2022-09-01T09:56:33.148Z,18.78
2022-09-01T09:57:39.079Z,18.76
2022-09-01T09:58:42.196Z,18.76
2022-09-01T10:00:01.860Z,18.78
2022-09-01T10:01:17.537Z,18.77
2022-09-01T10:02:41.328Z,18.81
2022-09-01T10:03:50.002Z,18.86
2022-09-01T10:04:55.679Z,18.83
2022-09-01T10:05:57.586Z,18.84
2022-09-01T10:06:59.208Z,18.81
2022-09-01T10:08:00.860Z,18.84
2022-09-01T10:09:15.961Z,18.91
2022-09-01T10:10:29.544Z,18.97
2022-09-01T10:11:35.656Z,19.14
2022-09-01T10:12:37.767Z,19.22
2022-09-01T10:13:39.413Z,19.24
2022-09-01T10:14:53.507Z,19.31
2022-09-01T10:15:57.565Z,19.35
2022-09-01T10:17:04.450Z,19.38
2022-09-01T10:19:35.736Z,19.49
2022-09-01T10:20:38.497Z,19.58
2022-09-01T10:21:41.761Z,19.68
2022-09-01T10:22:44.822Z,19.70
2022-09-01T10:23:46.568Z,19.66
2022-09-01T10:24:50.296Z,19.68
2022-09-01T10:25:52.560Z,19.69
2022-09-01T10:26:55.738Z,19.72
2022-09-01T10:28:20.848Z,19.72
2022-09-01T10:29:34.733Z,19.76
2022-09-01T10:30:38.629Z,19.73
2022-09-01T10:31:40.930Z,19.82
2022-09-01T10:32:54.255Z,19.92
2022-09-01T10:33:58.672Z,20.00
2022-09-01T10:35:01.671Z,20.10
2022-09-01T10:36:06.950Z,20.19
2022-09-01T10:37:10.530Z,20.26
2022-09-01T10:38:17.212Z,20.33
2022-09-01T10:39:22.201Z,20.34
2022-09-01T10:40:43.796Z,20.45
2022-09-01T10:41:59.953Z,20.41
2022-09-01T10:43:30.676Z,20.29
2022-09-01T10:44:39.040Z,20.36
2022-09-01T10:45:41.230Z,20.37
2022-09-01T10:46:50.202Z,20.37
2022-09-01T10:47:52.578Z,20.41
2022-09-01T10:48:56.620Z,20.41
2022-09-01T10:50:09.889Z,20.48
2022-09-01T10:51:21.057Z,20.54
2022-09-01T10:52:41.232Z,20.68
2022-09-01T10:54:02.284Z,20.75
2022-09-01T10:55:04.505Z,20.87
2022-09-01T10:56:28.096Z,20.84
2022-09-01T10:57:48.614Z,20.84
2022-09-01T11:00:36.139Z,20.95
2022-09-01T11:01:49.010Z,20.96
2022-09-01T11:04:40.639Z,20.74
2022-09-01T11:06:11.025Z,20.75
2022-09-01T11:07:29.722Z,20.84
2022-09-01T11:08:48.283Z,20.90
2022-09-01T11:10:11.756Z,20.94
2022-09-01T11:11:36.533Z,20.91
2022-09-01T11:12:47.496Z,20.95
2022-09-01T11:13:50.683Z,21.08
2022-09-01T11:15:00.290Z,21.12
2022-09-01T11:16:53.498Z,21.02
2022-09-01T11:17:58.133Z,21.16
2022-09-01T11:19:35.005Z,21.09
2022-09-01T11:20:38.594Z,21.15
2022-09-01T11:21:41.203Z,21.26
2022-09-01T11:22:58.217Z,21.36
2022-09-01T11:25:02.580Z,21.43
2022-09-01T11:26:32.565Z,21.49
2022-09-01T11:27:49.117Z,21.55
2022-09-01T11:28:50.934Z,21.55
2022-09-01T11:29:55.520Z,21.49
2022-09-01T11:31:06.143Z,21.49
2022-09-01T11:32:07.832Z,21.55
2022-09-01T11:33:18.385Z,21.50
2022-09-01T11:34:20.632Z,21.57
2022-09-01T11:35:23.563Z,21.67
2022-09-01T11:36:37.774Z,21.57
2022-09-01T11:37:39.392Z,21.69
2022-09-01T11:38:51.489Z,21.59
2022-09-01T11:39:55.774Z,21.63
2022-09-01T11:40:58.150Z,21.73
2022-09-01T11:42:21.594Z,21.83
2022-09-01T11:43:23.501Z,21.97
2022-09-01T11:44:53.044Z,22.11
2022-09-01T11:46:02.710Z,22.20
2022-09-01T11:47:19.812Z,22.04
2022-09-01T11:48:21.463Z,22.01
2022-09-01T11:49:37.252Z,21.96
2022-09-01T11:50:40.258Z,21.96
2022-09-01T11:51:46.196Z,22.07
2022-09-01T11:53:05.837Z,22.08
2022-09-01T11:54:07.517Z,22.08
2022-09-01T11:55:09.466Z,22.10
2022-09-01T11:56:20.086Z,22.13
2022-09-01T11:57:29.132Z,22.25
2022-09-01T11:58:34.530Z,22.00
2022-09-01T11:59:37.498Z,22.07
2022-09-01T12:00:41.091Z,22.13
2022-09-01T12:01:42.764Z,22.20
2022-09-01T12:02:47.345Z,22.28
2022-09-01T12:03:51.295Z,22.24
2022-09-01T12:04:55.516Z,22.27
2022-09-01T12:06:02.854Z,22.28
2022-09-01T12:07:10.807Z,22.35
2022-09-01T12:08:14.582Z,22.28
2022-09-01T12:09:16.250Z,22.34
2022-09-01T12:10:20.168Z,22.38
2022-09-01T12:11:25.829Z,22.30
2022-09-01T12:12:30.439Z,22.31
2022-09-01T12:13:32.103Z,22.22
2022-09-01T12:14:49.081Z,22.24
2022-09-01T12:16:16.901Z,22.28
2022-09-01T12:17:20.100Z,22.31
2022-09-01T12:18:23.961Z,22.31
2022-09-01T12:19:28.891Z,22.37
2022-09-01T12:20:32.565Z,22.43
2022-09-01T12:21:38.344Z,22.49
2022-09-01T12:22:39.975Z,22.57
2022-09-01T12:23:45.345Z,22.65
2022-09-01T12:24:52.103Z,22.75
2022-09-01T12:26:24.433Z,22.69
2022-09-01T12:27:26.098Z,22.68
2022-09-01T12:28:32.283Z,22.65
2022-09-01T12:29:33.909Z,22.71
2022-09-01T12:30:39.573Z,22.57
2022-09-01T12:31:43.407Z,22.57
2022-09-01T12:32:45.175Z,22.62
2022-09-01T12:33:47.101Z,22.65
2022-09-01T12:35:01.498Z,22.62
2022-09-01T12:36:19.722Z,22.58
2022-09-01T12:37:22.450Z,22.58
2022-09-01T12:38:24.735Z,22.61
2022-09-01T12:39:26.517Z,22.58
2022-09-01T12:40:32.640Z,22.59
2022-09-01T12:41:39.502Z,22.62
2022-09-01T12:42:44.190Z,22.61
2022-09-01T12:43:47.929Z,22.55
2022-09-01T12:45:09.076Z,22.55
2022-09-01T12:46:11.030Z,22.57
2022-09-01T12:47:33.528Z,22.55
2022-09-01T12:48:37.272Z,22.55
2022-09-01T12:49:51.306Z,22.61
2022-09-01T12:50:56.071Z,22.65
2022-09-01T12:52:29.940Z,22.67
2022-09-01T12:53:36.522Z,22.65
2022-09-01T12:54:38.541Z,22.65
2022-09-01T12:55:47.642Z,22.67
2022-09-01T12:56:50.143Z,22.72
2022-09-01T12:57:59.158Z,22.84
2022-09-01T12:59:14.250Z,22.85
2022-09-01T13:00:28.696Z,22.75
2022-09-01T13:01:32.626Z,22.79
2022-09-01T13:02:36.937Z,22.69
2022-09-01T13:03:38.750Z,22.71
2022-09-01T13:04:42.068Z,22.62
2022-09-01T13:05:45.126Z,22.76
2022-09-01T13:06:46.779Z,22.78
2022-09-01T13:07:48.484Z,22.89
2022-09-01T13:08:50.147Z,22.96
2022-09-01T13:09:51.795Z,22.91
2022-09-01T13:11:14.389Z,23.02
2022-09-01T13:12:20.340Z,23.15
2022-09-01T13:13:24.131Z,23.20
2022-09-01T13:14:25.806Z,23.23
2022-09-01T13:15:28.038Z,23.19
2022-09-01T13:16:29.750Z,23.19
2022-09-01T13:17:31.428Z,23.22
2022-09-01T13:18:33.169Z,23.15
2022-09-01T13:19:34.830Z,23.13
2022-09-01T13:20:36.526Z,23.08
2022-09-01T13:22:44.808Z,23.02
2022-09-01T13:23:46.810Z,22.92
2022-09-01T13:24:48.782Z,22.84
2022-09-01T13:25:50.561Z,22.86
2022-09-01T13:28:17.883Z,23.02
2022-09-01T13:29:19.734Z,23.00
2022-09-01T13:30:25.176Z,23.00
2022-09-01T13:31:29.277Z,23.00
2022-09-01T13:32:31.570Z,23.09
2022-09-01T13:34:09.296Z,23.20
2022-09-01T13:34:56.417Z,23.30
2022-09-01T13:35:58.158Z,23.36
2022-09-01T13:36:59.822Z,23.34
2022-09-01T13:38:01.727Z,23.29
2022-09-01T13:39:03.361Z,23.27
2022-09-01T13:40:07.291Z,23.22
2022-09-01T13:41:11.694Z,23.16
2022-09-01T13:42:14.899Z,23.10
2022-09-01T13:43:20.027Z,23.08
2022-09-01T13:44:21.745Z,23.03
2022-09-01T13:45:25.846Z,22.94
2022-09-01T13:46:27.576Z,22.95
2022-09-01T13:47:30.561Z,22.96
2022-09-01T13:50:13.532Z,23.02
2022-09-01T13:51:28.448Z,23.02
2022-09-01T13:52:30.100Z,23.03
2022-09-01T13:53:31.860Z,22.94
2022-09-01T13:54:33.502Z,22.89
2022-09-01T13:55:38.532Z,22.94
2022-09-01T13:56:40.441Z,22.88
2022-09-01T13:57:42.474Z,22.92
2022-09-01T13:58:44.106Z,22.89
2022-09-01T13:59:47.955Z,22.82
2022-09-01T14:00:51.047Z,22.78
2022-09-01T14:01:53.277Z,22.82
2022-09-01T14:02:56.617Z,22.84
2022-09-01T14:04:00.593Z,22.85
2022-09-01T14:05:02.652Z,22.91
2022-09-01T14:06:04.270Z,22.95
2022-09-01T14:07:06.147Z,22.94
2022-09-01T14:08:08.083Z,22.99
2022-09-01T14:09:17.478Z,22.95
2022-09-01T14:10:19.894Z,22.86
2022-09-01T14:11:21.513Z,22.82
2022-09-01T14:12:23.204Z,22.82
2022-09-01T14:13:25.168Z,22.85
2022-09-01T14:14:26.878Z,22.76
2022-09-01T14:15:28.605Z,22.85
2022-09-01T14:16:30.359Z,22.82
2022-09-01T14:17:32.126Z,22.84
2022-09-01T14:18:36.876Z,22.88
2022-09-01T14:19:39.084Z,22.84
2022-09-01T14:20:42.328Z,22.84
2022-09-01T14:21:44.438Z,22.89
2022-09-01T14:22:48.397Z,22.91
2022-09-01T14:23:50.024Z,22.92
2022-09-01T14:24:52.357Z,22.92
2022-09-01T14:25:54.112Z,22.82
2022-09-01T14:26:55.803Z,22.86
2022-09-01T14:27:57.588Z,22.88
2022-09-01T14:29:02.644Z,22.88
2022-09-01T14:30:06.612Z,22.84
2022-09-01T14:31:09.715Z,22.72
2022-09-01T14:32:11.558Z,22.79
2022-09-01T14:33:13.346Z,22.76
2022-09-01T14:34:16.365Z,22.79
2022-09-01T14:35:19.315Z,22.68
2022-09-01T14:36:25.824Z,22.73
2022-09-01T14:37:27.499Z,22.78
2022-09-01T14:38:29.874Z,22.78
2022-09-01T14:39:31.490Z,22.82
2022-09-01T14:40:33.850Z,22.86
2022-09-01T14:41:35.573Z,22.88
2022-09-01T14:42:37.388Z,22.91
2022-09-01T14:43:42.935Z,22.82